createdAt,value
2023-10-17T00:00:40.471Z,99605.25
2023-10-17T00:03:12.528Z,99595.03
2023-10-17T00:05:43.143Z,99600.16
2023-10-17T00:08:13.817Z,99595.84
2023-10-17T00:10:46.645Z,99594.09
2023-10-17T00:13:32.641Z,99585.59
2023-10-17T00:16:03.380Z,99584.06
2023-10-17T00:18:32.436Z,99580.78
2023-10-17T00:21:12.010Z,99586.72
2023-10-17T00:23:41.735Z,99589.28
2023-10-17T00:26:10.520Z,99584.06
2023-10-17T00:28:41.873Z,99582.34
2023-10-17T00:31:12.114Z,99581.50
2023-10-17T00:33:43.051Z,99590.19
2023-10-17T00:36:15.870Z,99587.75
2023-10-17T00:38:46.935Z,99587.03
2023-10-17T00:41:25.948Z,99576.91
2023-10-17T00:43:55.774Z,99576.25
2023-10-17T00:46:36.663Z,99574.81
2023-10-17T00:49:10.794Z,99585.88
2023-10-17T00:51:41.348Z,99575.63
2023-10-17T00:54:12.830Z,99577.28
2023-10-17T00:56:44.858Z,99576.66
2023-10-17T00:59:13.535Z,99579.41
2023-10-17T01:01:44.556Z,99569.19
2023-10-17T01:04:15.425Z,99575.94
2023-10-17T01:06:44.269Z,99567.25
2023-10-17T01:09:19.978Z,99570.72
2023-10-17T01:11:50.236Z,99570.72
2023-10-17T01:14:20.485Z,99571.63
2023-10-17T01:16:54.166Z,99565.81
2023-10-17T01:19:23.301Z,99567.63
2023-10-17T01:21:52.676Z,99566.09
2023-10-17T01:24:23.192Z,99561.88
2023-10-17T01:26:53.118Z,99569.66
2023-10-17T01:29:22.680Z,99572.53
2023-10-17T01:31:52.157Z,99572.72
2023-10-17T01:34:22.450Z,99564.31
2023-10-17T01:36:52.387Z,99564.50
2023-10-17T01:39:22.605Z,99573.28
2023-10-17T01:41:52.210Z,99568.28
2023-10-17T01:44:21.082Z,99565.72
2023-10-17T01:46:51.005Z,99572.38
2023-10-17T01:49:21.235Z,99569.81
2023-10-17T01:51:50.321Z,99562.06
2023-10-17T01:54:19.123Z,99562.06
2023-10-17T01:56:51.834Z,99559.59
2023-10-17T01:59:27.094Z,99557.13
2023-10-17T02:01:58.474Z,99562.34
2023-10-17T02:04:27.485Z,99551.31
2023-10-17T02:06:56.795Z,99547.19
2023-10-17T02:09:45.916Z,99543.00
2023-10-17T02:12:18.023Z,99545.56
2023-10-17T02:14:46.955Z,99547.28
2023-10-17T02:17:16.702Z,99554.22
2023-10-17T02:19:45.712Z,99555.88
2023-10-17T02:22:17.827Z,99570.19
2023-10-17T02:24:46.606Z,99566.94
2023-10-17T02:27:15.366Z,99570.31
2023-10-17T02:29:48.792Z,99571.94
2023-10-17T02:32:19.943Z,99566.94
2023-10-17T02:34:49.049Z,99566.09
2023-10-17T02:37:20.329Z,99561.81
2023-10-17T02:39:49.070Z,99568.56
2023-10-17T02:42:17.896Z,99566.09
2023-10-17T02:44:47.976Z,99565.28
2023-10-17T02:47:16.855Z,99555.97
2023-10-17T02:49:47.551Z,99548.50
2023-10-17T02:52:19.093Z,99543.56
2023-10-17T02:55:01.390Z,99540.50
2023-10-17T02:57:34.810Z,99530.47
2023-10-17T03:00:21.694Z,99527.00
2023-10-17T03:02:53.612Z,99531.28
2023-10-17T03:05:26.408Z,99538.13
2023-10-17T03:07:56.126Z,99541.63
2023-10-17T03:10:38.371Z,99544.16
2023-10-17T03:13:16.012Z,99541.72
2023-10-17T03:15:47.519Z,99551.09
2023-10-17T03:18:18.613Z,99551.09
2023-10-17T03:20:52.040Z,99547.53
2023-10-17T03:23:21.461Z,99545.72
2023-10-17T03:25:51.108Z,99541.31
2023-10-17T03:28:23.709Z,99533.53
2023-10-17T03:30:55.967Z,99541.94
2023-10-17T03:33:28.569Z,99532.75
2023-10-17T03:36:06.705Z,99529.53
2023-10-17T03:38:38.570Z,99529.00
2023-10-17T03:41:16.826Z,99519.91
2023-10-17T03:43:53.418Z,99512.50
2023-10-17T03:46:27.273Z,99509.94
2023-10-17T03:48:59.588Z,99515.06
2023-10-17T03:51:28.932Z,99510.16
2023-10-17T03:54:08.080Z,99511.97
2023-10-17T03:56:46.867Z,99508.59
2023-10-17T03:59:31.368Z,99512.97
2023-10-17T04:02:04.545Z,99505.94
2023-10-17T04:04:37.771Z,99505.13
2023-10-17T04:07:08.169Z,99519.53
2023-10-17T04:09:47.794Z,99519.34
2023-10-17T04:12:22.717Z,99522.72
2023-10-17T04:14:56.242Z,99520.06
2023-10-17T04:17:31.089Z,99512.34
2023-10-17T04:20:12.872Z,99506.47
2023-10-17T04:22:46.479Z,99507.28
2023-10-17T04:25:34.031Z,99519.09
2023-10-17T04:28:03.081Z,99516.44
2023-10-17T04:30:36.624Z,99510.22
2023-10-17T04:33:14.063Z,99518.63
2023-10-17T04:35:48.581Z,99504.09
2023-10-17T04:38:20.862Z,99510.00
2023-10-17T04:41:12.403Z,99503.19
2023-10-17T04:43:45.584Z,99505.63
2023-10-17T04:46:14.540Z,99510.84
2023-10-17T04:48:47.891Z,99509.41
2023-10-17T04:51:32.824Z,99523.00
2023-10-17T04:54:10.998Z,99511.06
2023-10-17T04:57:00.481Z,99524.63
2023-10-17T04:59:42.509Z,99523.19
2023-10-17T05:02:37.317Z,99530.84
2023-10-17T05:05:25.739Z,99524.09
2023-10-17T05:08:05.729Z,99530.00
2023-10-17T05:10:52.269Z,99528.41
2023-10-17T05:13:37.679Z,99531.09
2023-10-17T05:16:24.615Z,99529.75
2023-10-17T05:19:10.919Z,99530.59
2023-10-17T05:21:58.164Z,99520.34
2023-10-17T05:24:44.784Z,99528.72
2023-10-17T05:27:30.878Z,99523.81
2023-10-17T05:30:16.839Z,99518.28
2023-10-17T05:33:03.434Z,99520.28
2023-10-17T05:35:49.594Z,99525.88
2023-10-17T05:38:36.947Z,99524.22
2023-10-17T05:41:23.220Z,99520.13
2023-10-17T05:44:09.687Z,99521.03
2023-10-17T05:47:07.484Z,99516.13
2023-10-17T05:49:53.676Z,99518.88
2023-10-17T05:52:39.765Z,99512.47
2023-10-17T05:55:29.955Z,99510.94
2023-10-17T05:58:18.438Z,99512.78
2023-10-17T06:01:04.527Z,99506.13
2023-10-17T06:03:50.653Z,99508.66
2023-10-17T06:06:36.696Z,99499.38
2023-10-17T06:09:23.011Z,99503.75
2023-10-17T06:12:12.503Z,99492.91
2023-10-17T06:14:58.575Z,99507.22
2023-10-17T06:17:29.201Z,99506.31
2023-10-17T06:19:59.689Z,99505.38
2023-10-17T06:22:56.882Z,99502.66
2023-10-17T06:25:45.098Z,99508.38
2023-10-17T06:28:28.056Z,99499.56
2023-10-17T06:31:23.332Z,99516.31
2023-10-17T06:33:54.155Z,99521.44
2023-10-17T06:36:26.671Z,99516.31
2023-10-17T06:38:57.249Z,99521.44
2023-10-17T06:41:39.599Z,99509.56
2023-10-17T06:44:11.389Z,99510.28
2023-10-17T06:46:49.723Z,99518.78
2023-10-17T06:49:41.466Z,99522.94
2023-10-17T06:52:20.289Z,99517.56
2023-10-17T06:54:51.944Z,99520.69
2023-10-17T06:57:21.347Z,99524.59
2023-10-17T06:59:53.976Z,99530.31
2023-10-17T07:02:29.323Z,99527.69
2023-10-17T07:05:01.379Z,99513.81
2023-10-17T07:07:40.320Z,99520.34
2023-10-17T07:10:18.584Z,99519.16
2023-10-17T07:12:51.879Z,99518.88
2023-10-17T07:15:24.124Z,99507.56
2023-10-17T07:18:12.936Z,99498.78
2023-10-17T07:20:55.676Z,99500.22
2023-10-17T07:23:28.537Z,99505.97
2023-10-17T07:25:57.827Z,99505.78
2023-10-17T07:28:26.832Z,99510.72
2023-10-17T07:31:02.292Z,99502.00
2023-10-17T07:33:34.201Z,99514.59
2023-10-17T07:36:05.768Z,99497.53
2023-10-17T07:38:34.810Z,99499.88
2023-10-17T07:41:14.184Z,99507.38
2023-10-17T07:43:45.566Z,99497.84
2023-10-17T07:46:19.658Z,99503.59
2023-10-17T07:48:50.963Z,99497.47
2023-10-17T07:51:20.429Z,99499.09
2023-10-17T07:53:49.201Z,99503.09
2023-10-17T07:56:22.661Z,99493.59
2023-10-17T07:58:59.133Z,99500.94
2023-10-17T08:01:35.176Z,99494.91
2023-10-17T08:04:19.123Z,99487.03
2023-10-17T08:06:52.043Z,99488.69
2023-10-17T08:09:37.694Z,99499.66
2023-10-17T08:12:10.026Z,99499.56
2023-10-17T08:14:43.253Z,99498.53
2023-10-17T08:17:16.105Z,99504.34
2023-10-17T08:20:00.153Z,99501.69
2023-10-17T08:22:48.963Z,99506.72
2023-10-17T08:25:26.333Z,99511.84
2023-10-17T08:27:58.144Z,99506.53
2023-10-17T08:30:44.270Z,99508.97
2023-10-17T08:33:16.534Z,99504.66
2023-10-17T08:35:52.519Z,99494.31
2023-10-17T08:38:20.256Z,99514.72
2023-10-17T08:40:51.317Z,99522.19
2023-10-17T08:43:21.765Z,99520.44
2023-10-17T08:45:55.600Z,99525.38
2023-10-17T08:48:26.351Z,99532.94
2023-10-17T08:50:58.445Z,99542.34
2023-10-17T08:53:27.804Z,99537.94
2023-10-17T08:55:56.815Z,99526.69
2023-10-17T08:58:33.934Z,99520.63
2023-10-17T09:01:11.842Z,99519.72
2023-10-17T09:03:45.523Z,99513.69
2023-10-17T09:06:38.861Z,99509.28
2023-10-17T09:09:22.000Z,99506.72
2023-10-17T09:12:13.050Z,99529.66
2023-10-17T09:14:45.455Z,99524.56
2023-10-17T09:17:19.334Z,99509.91
2023-10-17T09:19:52.630Z,99498.75
2023-10-17T09:22:42.863Z,99493.41
2023-10-17T09:25:20.574Z,99496.81
2023-10-17T09:27:54.208Z,99493.22
2023-10-17T09:30:25.429Z,99494.84
2023-10-17T09:32:54.519Z,99500.69
2023-10-17T09:35:24.597Z,99501.44
2023-10-17T09:37:57.845Z,99488.53
2023-10-17T09:40:28.787Z,99488.47
2023-10-17T09:42:58.139Z,99489.97
2023-10-17T09:45:35.830Z,99488.94
2023-10-17T09:48:08.852Z,99482.22
2023-10-17T09:50:40.163Z,99488.03
2023-10-17T09:53:18.873Z,99492.94
2023-10-17T09:55:50.714Z,99501.34
2023-10-17T09:58:29.314Z,99503.78
2023-10-17T10:01:02.618Z,99503.69
2023-10-17T10:03:32.578Z,99500.91
2023-10-17T10:06:24.816Z,99514.44
2023-10-17T10:08:56.966Z,99518.63
2023-10-17T10:11:56.318Z,99512.56
2023-10-17T10:14:43.912Z,99501.41
2023-10-17T10:17:16.306Z,99507.38
2023-10-17T10:20:05.785Z,99512.38
2023-10-17T10:22:54.917Z,99511.44
2023-10-17T10:25:23.878Z,99513.09
2023-10-17T10:28:30.879Z,99502.84
2023-10-17T10:31:00.040Z,99504.50
2023-10-17T10:33:32.240Z,99502.63
2023-10-17T10:36:02.703Z,99501.59
2023-10-17T10:38:32.838Z,99491.34
2023-10-17T10:41:14.746Z,99493.84
2023-10-17T10:43:43.815Z,99498.75
2023-10-17T10:46:13.175Z,99492.78
2023-10-17T10:48:48.927Z,99480.81
2023-10-17T10:51:17.865Z,99473.94
2023-10-17T10:53:55.398Z,99468.72
2023-10-17T10:56:26.289Z,99473.84
2023-10-17T10:58:57.439Z,99481.50
2023-10-17T11:01:28.818Z,99461.88
2023-10-17T11:04:01.179Z,99448.09
2023-10-17T11:06:30.558Z,99439.50
2023-10-17T11:09:00.749Z,99437.78
2023-10-17T11:11:31.454Z,99436.84
2023-10-17T11:14:01.139Z,99423.91
2023-10-17T11:16:31.508Z,99416.22
2023-10-17T11:19:00.467Z,99418.72
2023-10-17T11:21:29.154Z,99419.53
2023-10-17T11:24:03.549Z,99417.75
2023-10-17T11:26:36.833Z,99426.19
2023-10-17T11:29:06.481Z,99410.81
2023-10-17T11:31:35.750Z,99409.88
2023-10-17T11:34:08.489Z,99412.44
2023-10-17T11:36:47.808Z,99418.25
2023-10-17T11:39:18.082Z,99412.22
2023-10-17T11:41:49.647Z,99407.00
2023-10-17T11:44:26.451Z,99395.00
2023-10-17T11:47:00.817Z,99400.13
2023-10-17T11:49:36.606Z,99398.28
2023-10-17T11:52:12.215Z,99411.78
2023-10-17T11:57:34.935Z,99408.19
2023-10-17T12:00:08.227Z,99402.13
2023-10-17T12:02:43.620Z,99392.69
2023-10-17T12:05:19.328Z,99389.22
2023-10-17T12:07:51.059Z,99396.09
2023-10-17T12:10:21.080Z,99397.63
2023-10-17T12:12:53.652Z,99392.28
2023-10-17T12:15:23.212Z,99380.38
2023-10-17T12:17:52.217Z,99385.50
2023-10-17T12:20:27.212Z,99383.91
2023-10-17T12:22:57.880Z,99381.34
2023-10-17T12:25:26.840Z,99374.69
2023-10-17T12:27:58.388Z,99385.72
2023-10-17T12:30:29.593Z,99374.69
2023-10-17T12:32:59.082Z,99372.94
2023-10-17T12:35:29.568Z,99368.72
2023-10-17T12:38:00.947Z,99362.78
2023-10-17T12:40:31.710Z,99364.31
2023-10-17T12:43:02.714Z,99362.78
2023-10-17T12:45:31.650Z,99362.56
2023-10-17T12:48:00.763Z,99361.75
2023-10-17T12:50:30.763Z,99365.97
2023-10-17T12:53:00.142Z,99364.31
2023-10-17T12:55:29.746Z,99355.00
2023-10-17T12:57:59.304Z,99360.84
2023-10-17T13:00:32.226Z,99363.97
2023-10-17T13:03:01.460Z,99356.28
2023-10-17T13:05:30.634Z,99364.91
2023-10-17T13:07:59.424Z,99370.75
2023-10-17T13:10:29.320Z,99368.06
2023-10-17T13:13:00.219Z,99367.84
2023-10-17T13:15:30.678Z,99367.63
2023-10-17T13:18:04.368Z,99365.88
2023-10-17T13:20:39.038Z,99357.16
2023-10-17T13:23:20.958Z,99354.47
2023-10-17T13:25:49.737Z,99355.19
2023-10-17T13:28:18.590Z,99362.66
2023-10-17T13:30:49.306Z,99364.28
2023-10-17T13:33:22.422Z,99361.63
2023-10-17T13:35:51.234Z,99364.88
2023-10-17T13:38:21.517Z,99364.06
2023-10-17T13:40:50.220Z,99363.13
2023-10-17T13:43:19.498Z,99356.25
2023-10-17T13:45:50.506Z,99356.03
2023-10-17T13:48:22.056Z,99348.34
2023-10-17T13:50:51.122Z,99342.50
2023-10-17T13:53:19.844Z,99330.38
2023-10-17T13:55:48.648Z,99319.34
2023-10-17T13:58:17.778Z,99315.84
2023-10-17T14:00:52.381Z,99316.66
2023-10-17T14:03:24.562Z,99323.53
2023-10-17T14:05:53.366Z,99321.78
2023-10-17T14:08:26.383Z,99322.69
2023-10-17T14:10:55.588Z,99315.00
2023-10-17T14:13:24.295Z,99309.88
2023-10-17T14:15:58.291Z,99313.28
2023-10-17T14:18:41.770Z,99319.22
2023-10-17T14:21:25.222Z,99319.34
2023-10-17T14:23:59.962Z,99307.56
2023-10-17T14:26:30.264Z,99315.38
2023-10-17T14:29:01.627Z,99311.97
2023-10-17T14:31:32.361Z,99307.66
2023-10-17T14:34:03.652Z,99302.56
2023-10-17T14:36:32.405Z,99306.75
2023-10-17T14:39:01.921Z,99308.47
2023-10-17T14:41:31.606Z,99298.09
2023-10-17T14:44:00.414Z,99301.50
2023-10-17T14:46:29.357Z,99298.00
2023-10-17T14:48:58.193Z,99303.94
2023-10-17T14:51:28.770Z,99311.53
2023-10-17T14:53:57.825Z,99308.03
2023-10-17T14:56:29.086Z,99301.38
2023-10-17T14:58:58.074Z,99305.00
2023-10-17T15:01:27.674Z,99298.22
2023-10-17T15:03:56.569Z,99303.34
2023-10-17T15:06:25.435Z,99292.28
2023-10-17T15:08:55.765Z,99305.00
2023-10-17T15:11:24.662Z,99301.50
2023-10-17T15:13:54.001Z,99295.44
2023-10-17T15:16:22.853Z,99293.81
2023-10-17T15:18:53.147Z,99298.94
2023-10-17T15:21:23.503Z,99303.94
2023-10-17T15:23:54.021Z,99301.50
2023-10-17T15:26:24.461Z,99300.66
2023-10-17T15:28:54.008Z,99295.66
2023-10-17T15:31:22.982Z,99301.72
2023-10-17T15:33:52.143Z,99301.72
2023-10-17T15:36:28.793Z,99300.78
2023-10-17T15:38:59.698Z,99297.41
2023-10-17T15:41:28.324Z,99288.81
2023-10-17T15:43:56.976Z,99297.31
2023-10-17T15:46:26.477Z,99297.31
2023-10-17T15:48:56.452Z,99301.63
2023-10-17T15:51:27.897Z,99300.78
2023-10-17T15:53:58.701Z,99290.53
2023-10-17T15:56:30.643Z,99293.22
2023-10-17T15:59:00.052Z,99290.78
2023-10-17T16:01:30.308Z,99299.38
2023-10-17T16:03:59.185Z,99299.50
2023-10-17T16:06:28.125Z,99303.81
2023-10-17T16:08:58.278Z,99298.09
2023-10-17T16:11:26.931Z,99303.47
2023-10-17T16:13:55.640Z,99301.94
2023-10-17T16:16:25.603Z,99308.91
2023-10-17T16:18:54.682Z,99303.09
2023-10-17T16:21:23.474Z,99307.38
2023-10-17T16:23:52.246Z,99303.09
2023-10-17T16:26:22.460Z,99311.47
2023-10-17T16:28:51.507Z,99312.41
2023-10-17T16:31:20.992Z,99311.47
2023-10-17T16:33:50.332Z,99305.53
2023-10-17T16:36:20.089Z,99305.66
2023-10-17T16:38:48.948Z,99307.38
2023-10-17T16:41:18.404Z,99307.38
2023-10-17T16:43:48.564Z,99293.75
2023-10-17T16:46:21.177Z,99286.88
2023-10-17T16:48:50.041Z,99292.13
2023-10-17T16:51:23.275Z,99293.06
2023-10-17T16:53:52.460Z,99291.53
2023-10-17T16:56:25.581Z,99288.03
2023-10-17T16:58:58.363Z,99290.59
2023-10-17T17:01:27.843Z,99289.78
2023-10-17T17:04:06.324Z,99285.47
2023-10-17T17:06:35.199Z,99284.66
2023-10-17T17:09:07.068Z,99287.34
2023-10-17T17:11:38.302Z,99284.91
2023-10-17T17:14:08.625Z,99277.34
2023-10-17T17:16:37.557Z,99276.50
2023-10-17T17:19:07.008Z,99284.19
2023-10-17T17:21:36.004Z,99288.38
2023-10-17T17:24:12.757Z,99278.84
2023-10-17T17:26:42.446Z,99281.41
2023-10-17T17:29:12.608Z,99290.03
2023-10-17T17:31:43.705Z,99287.47
2023-10-17T17:34:12.760Z,99291.88
2023-10-17T17:36:41.451Z,99292.91
2023-10-17T17:39:19.646Z,99288.72
2023-10-17T17:41:48.578Z,99287.91
2023-10-17T17:44:18.851Z,99284.53
2023-10-17T17:46:49.336Z,99288.81
2023-10-17T17:49:26.362Z,99290.56
2023-10-17T17:51:55.952Z,99271.13
2023-10-17T17:54:27.387Z,99283.94
2023-10-17T17:56:56.375Z,99285.69
2023-10-17T17:59:27.156Z,99282.28
2023-10-17T18:01:57.727Z,99279.84
2023-10-17T18:04:31.590Z,99280.88
2023-10-17T18:07:01.163Z,99290.31
2023-10-17T18:09:31.088Z,99291.13
2023-10-17T18:12:00.893Z,99295.44
2023-10-17T18:14:32.348Z,99291.13
2023-10-17T18:17:01.271Z,99288.56
2023-10-17T18:19:30.334Z,99286.94
2023-10-17T18:22:03.037Z,99298.81
2023-10-17T18:24:32.131Z,99286.94
2023-10-17T18:27:01.683Z,99281.72
2023-10-17T18:29:32.906Z,99279.97
2023-10-17T18:32:02.035Z,99282.53
2023-10-17T18:34:31.054Z,99273.19
2023-10-17T18:37:02.769Z,99274.16
2023-10-17T18:39:32.951Z,99272.50
2023-10-17T18:42:05.117Z,99264.09
2023-10-17T18:44:35.928Z,99265.75
2023-10-17T18:47:06.110Z,99264.81
2023-10-17T18:49:36.000Z,99257.13
2023-10-17T18:52:10.265Z,99251.19
2023-10-17T18:54:40.811Z,99255.50
2023-10-17T18:57:09.812Z,99265.75
2023-10-17T18:59:43.025Z,99270.06
2023-10-17T19:02:14.709Z,99265.75
2023-10-17T19:04:44.414Z,99260.63
2023-10-17T19:07:19.779Z,99265.75
2023-10-17T19:09:49.131Z,99273.44
2023-10-17T19:12:18.051Z,99274.34
2023-10-17T19:14:48.293Z,99262.50
2023-10-17T19:17:18.728Z,99260.00
2023-10-17T19:19:48.428Z,99256.66
2023-10-17T19:22:17.301Z,99249.88
2023-10-17T19:24:48.909Z,99258.53
2023-10-17T19:27:17.973Z,99255.13
2023-10-17T19:29:48.343Z,99265.47
2023-10-17T19:32:17.403Z,99255.34
2023-10-17T19:34:46.087Z,99249.44
2023-10-17T19:37:16.009Z,99247.78
2023-10-17T19:39:44.984Z,99254.63
2023-10-17T19:42:14.003Z,99241.84
2023-10-17T19:44:42.889Z,99241.84
2023-10-17T19:47:12.943Z,99236.72
2023-10-17T19:49:42.597Z,99234.88
2023-10-17T19:52:11.566Z,99234.06
2023-10-17T19:54:40.667Z,99230.66
2023-10-17T19:57:10.039Z,99242.78
2023-10-17T19:59:38.853Z,99238.59
2023-10-17T20:02:08.188Z,99231.81
2023-10-17T20:04:38.659Z,99232.53
2023-10-17T20:07:07.366Z,99230.78
2023-10-17T20:09:36.228Z,99232.44
2023-10-17T20:12:05.256Z,99235.91
2023-10-17T20:14:34.321Z,99233.34
2023-10-17T20:17:03.132Z,99225.66
2023-10-17T20:19:33.632Z,99228.09
2023-10-17T20:22:07.317Z,99209.38
2023-10-17T20:24:36.100Z,99209.50
2023-10-17T20:27:05.526Z,99211.22
2023-10-17T20:29:35.241Z,99200.06
2023-10-17T20:32:06.127Z,99197.63
2023-10-17T20:34:35.081Z,99200.06
2023-10-17T20:37:05.431Z,99200.06
2023-10-17T20:39:36.532Z,99196.69
2023-10-17T20:42:05.332Z,99196.81
2023-10-17T20:44:35.979Z,99196.81
2023-10-17T20:47:06.671Z,99191.91
2023-10-17T20:49:35.905Z,99198.88
2023-10-17T20:52:11.231Z,99196.31
2023-10-17T20:54:41.734Z,99191.22
2023-10-17T20:57:11.090Z,99185.38
2023-10-17T20:59:40.744Z,99193.97
2023-10-17T21:02:09.364Z,99190.47
2023-10-17T21:04:38.165Z,99181.88
2023-10-17T21:07:09.304Z,99195.38
2023-10-17T21:09:38.106Z,99190.25
2023-10-17T21:12:07.584Z,99174.88
2023-10-17T21:14:36.307Z,99169.78
2023-10-17T21:17:05.028Z,99175.84
2023-10-17T21:19:33.865Z,99176.75
2023-10-17T21:22:04.797Z,99176.75
2023-10-17T21:24:36.575Z,99177.69
2023-10-17T21:27:06.340Z,99178.59
2023-10-17T21:29:35.462Z,99168.38
2023-10-17T21:32:04.294Z,99165.72
2023-10-17T21:34:33.513Z,99156.41
2023-10-17T21:37:02.268Z,99152.09
2023-10-17T21:39:33.376Z,99152.09
2023-10-17T21:42:04.912Z,99149.53
2023-10-17T21:44:35.788Z,99158.84
2023-10-17T21:47:04.785Z,99146.97
2023-10-17T21:49:33.773Z,99141.03
2023-10-17T21:52:05.347Z,99150.38
2023-10-17T21:54:35.846Z,99146.97
2023-10-17T21:57:06.739Z,99141.16
2023-10-17T21:59:35.416Z,99141.16
2023-10-17T22:02:04.082Z,99141.97
2023-10-17T22:04:32.955Z,99149.53
2023-10-17T22:07:01.827Z,99140.13
2023-10-17T22:09:30.843Z,99141.72
2023-10-17T22:11:59.686Z,99149.41
2023-10-17T22:14:29.936Z,99135.81
2023-10-17T22:16:58.807Z,99138.38
2023-10-17T22:19:28.842Z,99134.16
2023-10-17T22:21:57.760Z,99133.34
2023-10-17T22:24:33.528Z,99139.16
2023-10-17T22:27:14.424Z,99130.69
2023-10-17T22:29:44.557Z,99130.69
2023-10-17T22:32:13.363Z,99135.81
2023-10-17T22:34:42.064Z,99129.03
2023-10-17T22:37:11.451Z,99138.38
2023-10-17T22:39:40.237Z,99135.81
2023-10-17T22:42:09.207Z,99140.94
2023-10-17T22:44:38.445Z,99144.41
2023-10-17T22:47:10.931Z,99132.53
2023-10-17T22:49:40.966Z,99132.53
2023-10-17T22:52:09.777Z,99123.91
2023-10-17T22:54:38.610Z,99124.75
2023-10-17T22:57:07.413Z,99125.56
2023-10-17T22:59:36.048Z,99123.00
2023-10-17T23:02:04.945Z,99129.03
2023-10-17T23:04:35.101Z,99119.63
2023-10-17T23:07:03.872Z,99127.41
2023-10-17T23:09:33.668Z,99124.16
2023-10-17T23:12:04.261Z,99115.75
2023-10-17T23:14:33.376Z,99113.31
2023-10-17T23:17:02.080Z,99122.03
2023-10-17T23:19:30.890Z,99109.25
2023-10-17T23:22:01.133Z,99116.22
2023-10-17T23:24:30.187Z,99103.69
2023-10-17T23:26:58.811Z,99095.28
2023-10-17T23:29:28.501Z,99090.97
2023-10-17T23:31:57.561Z,99094.34
2023-10-17T23:34:26.322Z,99087.47
2023-10-17T23:36:55.310Z,99090.88
2023-10-17T23:39:27.648Z,99088.31
2023-10-17T23:41:56.728Z,99090.97
2023-10-17T23:44:25.388Z,99088.41
2023-10-17T23:46:54.194Z,99084.81
2023-10-17T23:49:22.870Z,99089.91
2023-10-17T23:51:51.573Z,99083.88
2023-10-17T23:54:22.146Z,99088.09
2023-10-17T23:56:53.490Z,99089.72
2023-10-17T23:59:24.294Z,99090.63
